createdAt,value
2019-04-07T00:00:16.741Z,101106.13
2019-04-07T00:01:20.705Z,101106.27
2019-04-07T00:02:23.461Z,101103.59
2019-04-07T00:03:24.982Z,101108.44
2019-04-07T00:04:27.094Z,101106.27
2019-04-07T00:05:28.639Z,101104.06
2019-04-07T00:06:30.655Z,101105.41
2019-04-07T00:07:32.240Z,101108.09
2019-04-07T00:08:35.550Z,101111.64
2019-04-07T00:09:37.161Z,101109.78
2019-04-07T00:10:38.518Z,101107.99
2019-04-07T00:11:39.999Z,101107.61
2019-04-07T00:12:41.480Z,101104.41
2019-04-07T00:13:42.873Z,101104.41
2019-04-07T00:14:44.730Z,101104.93
2019-04-07T00:15:46.328Z,101106.27
2019-04-07T00:16:48.272Z,101101.28
2019-04-07T00:17:49.853Z,101102.72
2019-04-07T00:18:51.239Z,101094.81
2019-04-07T00:19:52.618Z,101096.88
2019-04-07T00:20:54.088Z,101095.53
2019-04-07T00:21:55.743Z,101091.13
2019-04-07T00:22:57.340Z,101087.48
2019-04-07T00:24:01.482Z,101083.83
2019-04-07T00:25:02.660Z,101084.80
2019-04-07T00:26:04.180Z,101078.46
2019-04-07T00:27:05.726Z,101081.97
2019-04-07T00:28:07.176Z,101079.29
2019-04-07T00:29:08.755Z,101079.16
2019-04-07T00:30:10.436Z,101078.30
2019-04-07T00:31:13.377Z,101077.81
2019-04-07T00:32:14.795Z,101077.47
2019-04-07T00:33:16.277Z,101073.44
2019-04-07T00:34:22.354Z,101073.55
2019-04-07T00:35:30.490Z,101068.69
2019-04-07T00:36:27.016Z,101070.52
2019-04-07T00:37:28.450Z,101071.52
2019-04-07T00:38:30.497Z,101066.28
2019-04-07T00:39:32.322Z,101067.28
2019-04-07T00:40:33.904Z,101066.94
2019-04-07T00:41:35.423Z,101062.56
2019-04-07T00:42:38.154Z,101067.10
2019-04-07T00:43:39.676Z,101058.84
2019-04-07T00:44:41.047Z,101056.50
2019-04-07T00:45:42.613Z,101051.30
2019-04-07T00:46:44.460Z,101058.16
2019-04-07T00:47:46.146Z,101062.52
2019-04-07T00:48:48.604Z,101053.78
2019-04-07T00:49:50.146Z,101056.46
2019-04-07T00:50:51.542Z,101057.97
2019-04-07T00:51:54.143Z,101054.78
2019-04-07T00:52:55.543Z,101061.48
2019-04-07T00:53:57.277Z,101059.80
2019-04-07T00:54:58.872Z,101057.12
2019-04-07T00:56:00.440Z,101056.12
2019-04-07T00:57:01.962Z,101058.80
2019-04-07T00:58:03.664Z,101060.66
2019-04-07T00:59:05.283Z,101050.41
2019-04-07T01:00:10.597Z,101056.12
2019-04-07T01:01:14.165Z,101056.63
2019-04-07T01:02:16.064Z,101055.77
2019-04-07T01:03:17.468Z,101055.64
2019-04-07T01:04:19.020Z,101057.46
2019-04-07T01:05:20.702Z,101056.12
2019-04-07T01:06:22.187Z,101052.61
2019-04-07T01:07:23.567Z,101054.78
2019-04-07T01:08:25.007Z,101053.44
2019-04-07T01:09:26.385Z,101049.92
2019-04-07T01:10:27.859Z,101050.41
2019-04-07T01:11:29.347Z,101049.41
2019-04-07T01:12:30.891Z,101055.98
2019-04-07T01:13:32.314Z,101047.07
2019-04-07T01:14:33.795Z,101047.07
2019-04-07T01:15:35.273Z,101044.73
2019-04-07T01:16:36.653Z,101049.62
2019-04-07T01:17:38.062Z,101043.05
2019-04-07T01:18:39.414Z,101040.02
2019-04-07T01:19:41.303Z,101042.05
2019-04-07T01:20:43.029Z,101037.55
2019-04-07T01:21:44.598Z,101036.20
2019-04-07T01:22:46.230Z,101044.59
2019-04-07T01:23:47.903Z,101038.88
2019-04-07T01:24:49.477Z,101040.91
2019-04-07T01:25:51.080Z,101041.40
2019-04-07T01:26:52.561Z,101039.71
2019-04-07T01:27:54.441Z,101047.77
2019-04-07T01:28:55.873Z,101038.02
2019-04-07T01:29:57.270Z,101040.70
2019-04-07T01:30:59.073Z,101043.56
2019-04-07T01:32:00.585Z,101043.05
2019-04-07T01:33:02.180Z,101033.31
2019-04-07T01:34:04.329Z,101035.99
2019-04-07T01:35:05.868Z,101034.17
2019-04-07T01:36:07.576Z,101037.84
2019-04-07T01:37:08.991Z,101028.94
2019-04-07T01:38:15.164Z,101037.64
2019-04-07T01:39:16.906Z,101030.59
2019-04-07T01:40:18.431Z,101032.62
2019-04-07T01:41:27.538Z,101027.42
2019-04-07T01:42:42.484Z,101030.24
2019-04-07T01:43:45.776Z,101024.88
2019-04-07T01:45:05.252Z,101028.77
2019-04-07T01:46:26.438Z,101021.70
2019-04-07T01:47:29.716Z,101024.56
2019-04-07T01:48:45.679Z,101027.59
2019-04-07T01:49:49.023Z,101024.88
2019-04-07T01:50:55.229Z,101025.73
2019-04-07T01:52:05.108Z,101026.39
2019-04-07T01:53:25.445Z,101026.87
2019-04-07T01:54:40.620Z,101021.50
2019-04-07T01:55:49.900Z,101019.16
2019-04-07T01:57:10.265Z,101020.84
2019-04-07T01:58:16.501Z,101020.51
2019-04-07T01:59:19.949Z,101022.88
2019-04-07T02:00:29.171Z,101020.02
2019-04-07T02:01:38.522Z,101022.36
2019-04-07T02:02:56.780Z,101020.51
2019-04-07T02:04:17.110Z,101024.05
2019-04-07T02:05:26.539Z,101014.83
2019-04-07T02:06:36.422Z,101011.66
2019-04-07T02:07:48.999Z,101017.52
2019-04-07T02:09:10.298Z,101015.83
2019-04-07T02:10:18.830Z,101015.00
2019-04-07T02:11:22.165Z,101008.12
2019-04-07T02:12:31.374Z,101011.80
2019-04-07T02:13:35.065Z,101015.14
2019-04-07T02:14:39.285Z,101012.45
2019-04-07T02:15:57.753Z,101010.28
2019-04-07T02:17:17.545Z,101005.92
2019-04-07T02:18:30.041Z,101006.95
2019-04-07T02:19:36.103Z,101005.44
2019-04-07T02:20:59.476Z,101001.28
2019-04-07T02:22:06.936Z,101008.64
2019-04-07T02:23:12.954Z,101003.09
2019-04-07T02:24:22.135Z,101002.41
2019-04-07T02:25:40.587Z,100998.55
2019-04-07T02:26:47.143Z,100996.02
2019-04-07T02:27:59.098Z,100999.90
2019-04-07T02:29:20.387Z,100992.50
2019-04-07T02:30:39.263Z,100997.87
2019-04-07T02:31:54.345Z,100990.50
2019-04-07T02:33:00.380Z,100987.96
2019-04-07T02:34:15.615Z,100987.61
2019-04-07T02:35:25.106Z,100991.44
2019-04-07T02:36:46.577Z,100990.27
2019-04-07T02:37:50.040Z,100987.23
2019-04-07T02:39:05.654Z,100984.90
2019-04-07T02:40:09.628Z,100990.57
2019-04-07T02:41:22.164Z,100983.86
2019-04-07T02:42:28.391Z,100982.31
2019-04-07T02:43:48.783Z,100986.20
2019-04-07T02:44:52.533Z,100989.87
2019-04-07T02:46:02.540Z,100984.86
2019-04-07T02:47:06.471Z,100984.00
2019-04-07T02:48:15.326Z,100987.20
2019-04-07T02:49:39.299Z,100979.28
2019-04-07T02:50:43.364Z,100979.15
2019-04-07T02:52:03.896Z,100975.81
2019-04-07T02:53:22.166Z,100974.12
2019-04-07T02:54:34.651Z,100972.96
2019-04-07T02:55:52.607Z,100967.11
2019-04-07T02:56:56.151Z,100962.23
2019-04-07T02:58:05.915Z,100963.91
2019-04-07T02:59:13.021Z,100965.08
2019-04-07T03:00:34.292Z,100959.72
2019-04-07T03:01:43.418Z,100959.72
2019-04-07T03:02:47.704Z,100957.55
2019-04-07T03:03:57.717Z,100948.67
2019-04-07T03:05:02.194Z,100956.38
2019-04-07T03:06:37.469Z,100949.67
2019-04-07T03:07:27.112Z,100948.33
2019-04-07T03:08:47.493Z,100947.68
2019-04-07T03:10:08.942Z,100947.68
2019-04-07T03:11:29.187Z,100941.66
2019-04-07T03:12:35.477Z,100943.34
2019-04-07T03:13:54.276Z,100947.71
2019-04-07T03:15:06.994Z,100944.34
2019-04-07T03:16:11.364Z,100946.55
2019-04-07T03:17:14.657Z,100942.34
2019-04-07T03:18:29.797Z,100942.14
2019-04-07T03:19:42.659Z,100943.31
2019-04-07T03:20:49.541Z,100936.43
2019-04-07T03:22:08.500Z,100942.14
2019-04-07T03:23:30.476Z,100938.12
2019-04-07T03:24:34.838Z,100939.31
2019-04-07T03:25:42.042Z,100937.32
2019-04-07T03:26:48.173Z,100938.12
2019-04-07T03:27:51.620Z,100934.27
2019-04-07T03:29:13.992Z,100937.94
2019-04-07T03:30:25.732Z,100933.06
2019-04-07T03:31:34.298Z,100929.72
2019-04-07T03:32:40.329Z,100928.55
2019-04-07T03:33:48.843Z,100930.38
2019-04-07T03:34:52.176Z,100927.18
2019-04-07T03:36:20.450Z,100927.66
2019-04-07T03:37:38.782Z,100929.97
2019-04-07T03:38:42.916Z,100924.94
2019-04-07T03:39:46.675Z,100923.12
2019-04-07T03:40:55.647Z,100919.58
2019-04-07T03:41:59.344Z,100927.45
2019-04-07T03:43:02.813Z,100925.77
2019-04-07T03:44:09.336Z,100922.40
2019-04-07T03:45:15.791Z,100924.22
2019-04-07T03:46:21.734Z,100925.22
2019-04-07T03:47:25.959Z,100919.51
2019-04-07T03:48:30.387Z,100917.00
2019-04-07T03:49:49.606Z,100915.66
2019-04-07T03:50:55.735Z,100920.16
2019-04-07T03:52:03.551Z,100923.05
2019-04-07T03:53:16.196Z,100913.94
2019-04-07T03:54:25.273Z,100913.94
2019-04-07T03:55:37.203Z,100916.62
2019-04-07T03:56:43.618Z,100912.59
2019-04-07T03:58:05.091Z,100914.94
2019-04-07T03:59:08.382Z,100912.77
2019-04-07T04:01:05.371Z,100914.80
2019-04-07T04:02:17.696Z,100911.91
2019-04-07T04:03:37.687Z,100908.13
2019-04-07T04:04:41.818Z,100911.98
2019-04-07T04:05:48.884Z,100910.63
2019-04-07T04:07:18.063Z,100913.94
2019-04-07T04:08:10.193Z,100912.25
2019-04-07T04:09:16.088Z,100909.57
2019-04-07T04:10:19.375Z,100913.25
2019-04-07T04:11:39.466Z,100914.25
2019-04-07T04:12:45.755Z,100918.27
2019-04-07T04:13:52.869Z,100920.30
2019-04-07T04:15:00.022Z,100914.94
2019-04-07T04:16:03.800Z,100917.27
2019-04-07T04:17:06.281Z,100917.27
2019-04-07T04:18:07.774Z,100913.77
2019-04-07T04:19:09.135Z,100912.08
2019-04-07T04:20:10.661Z,100905.86
2019-04-07T04:21:12.097Z,100913.91
2019-04-07T04:22:14.160Z,100907.71
2019-04-07T04:23:15.665Z,100911.73
2019-04-07T04:24:17.056Z,100908.54
2019-04-07T04:25:19.167Z,100910.22
2019-04-07T04:26:21.421Z,100906.20
2019-04-07T04:27:23.922Z,100906.55
2019-04-07T04:28:25.327Z,100906.89
2019-04-07T04:29:26.699Z,100907.23
2019-04-07T04:30:28.097Z,100903.20
2019-04-07T04:31:29.812Z,100903.07
2019-04-07T04:32:31.220Z,100903.07
2019-04-07T04:33:33.055Z,100904.27
2019-04-07T04:34:34.662Z,100899.25
2019-04-07T04:35:36.111Z,100901.42
2019-04-07T04:36:38.062Z,100902.77
2019-04-07T04:37:44.171Z,100901.77
2019-04-07T04:38:43.054Z,100900.94
2019-04-07T04:39:45.260Z,100905.14
2019-04-07T04:40:46.650Z,100907.81
2019-04-07T04:41:53.779Z,100898.94
2019-04-07T04:42:55.273Z,100901.97
2019-04-07T04:43:57.945Z,100900.45
2019-04-07T04:44:59.440Z,100896.09
2019-04-07T04:46:01.317Z,100898.63
2019-04-07T04:47:02.869Z,100895.09
2019-04-07T04:48:04.487Z,100897.77
2019-04-07T04:49:06.978Z,100895.95
2019-04-07T04:50:09.704Z,100895.78
2019-04-07T04:51:11.793Z,100886.91
2019-04-07T04:52:13.616Z,100896.98
2019-04-07T04:53:15.092Z,100888.59
2019-04-07T04:54:17.203Z,100891.44
2019-04-07T04:55:18.951Z,100894.64
2019-04-07T04:56:20.512Z,100894.64
2019-04-07T04:57:21.879Z,100895.47
2019-04-07T04:58:23.269Z,100887.42
2019-04-07T04:59:24.678Z,100889.62
2019-04-07T05:00:26.976Z,100890.96
2019-04-07T05:01:28.375Z,100885.08
2019-04-07T05:02:30.029Z,100886.42
2019-04-07T05:03:31.586Z,100882.91
2019-04-07T05:04:34.155Z,100892.64
2019-04-07T05:05:36.807Z,100883.25
2019-04-07T05:06:38.336Z,100885.77
2019-04-07T05:07:49.928Z,100877.03
2019-04-07T05:08:43.314Z,100885.94
2019-04-07T05:09:50.287Z,100880.23
2019-04-07T05:10:48.268Z,100881.05
2019-04-07T05:11:49.729Z,100874.00
2019-04-07T05:12:51.481Z,100879.54
2019-04-07T05:13:53.031Z,100878.55
2019-04-07T05:14:54.791Z,100879.54
2019-04-07T05:15:56.719Z,100880.37
2019-04-07T05:16:58.578Z,100882.23
2019-04-07T05:18:00.407Z,100882.23
2019-04-07T05:19:02.062Z,100877.86
2019-04-07T05:20:04.573Z,100880.54
2019-04-07T05:21:05.956Z,100878.86
2019-04-07T05:22:08.335Z,100874.48
2019-04-07T05:23:09.852Z,100880.34
2019-04-07T05:24:11.494Z,100880.85
2019-04-07T05:25:13.103Z,100876.48
2019-04-07T05:26:14.731Z,100876.14
2019-04-07T05:27:16.457Z,100879.65
2019-04-07T05:28:17.967Z,100881.85
2019-04-07T05:29:20.075Z,100880.16
2019-04-07T05:30:21.565Z,100883.67
2019-04-07T05:31:23.211Z,100881.51
2019-04-07T05:32:25.201Z,100882.33
2019-04-07T05:33:26.719Z,100878.31
2019-04-07T05:34:28.098Z,100878.83
2019-04-07T05:35:29.778Z,100874.80
2019-04-07T05:36:31.402Z,100880.85
2019-04-07T05:37:32.935Z,100877.31
2019-04-07T05:38:34.552Z,100878.17
2019-04-07T05:39:36.228Z,100878.17
2019-04-07T05:40:37.786Z,100873.28
2019-04-07T05:41:40.171Z,100883.53
2019-04-07T05:42:41.608Z,100877.31
2019-04-07T05:43:43.471Z,100874.14
2019-04-07T05:44:44.938Z,100879.86
2019-04-07T05:45:47.380Z,100878.00
2019-04-07T05:46:49.842Z,100871.81
2019-04-07T05:47:52.491Z,100871.81
2019-04-07T05:48:54.594Z,100874.83
2019-04-07T05:49:59.299Z,100879.68
2019-04-07T05:51:00.785Z,100872.62
2019-04-07T05:52:05.241Z,100876.00
2019-04-07T05:53:06.810Z,100877.86
2019-04-07T05:54:10.053Z,100879.54
2019-04-07T05:55:12.582Z,100876.52
2019-04-07T05:56:14.067Z,100879.89
2019-04-07T05:57:15.948Z,100881.56
2019-04-07T05:58:18.025Z,100880.70
2019-04-07T05:59:19.913Z,100883.91
2019-04-07T06:00:21.840Z,100885.08
2019-04-07T06:01:24.526Z,100884.25
2019-04-07T06:02:26.543Z,100882.56
2019-04-07T06:03:28.686Z,100881.23
2019-04-07T06:04:30.346Z,100884.73
2019-04-07T06:05:31.801Z,100887.08
2019-04-07T06:06:33.299Z,100883.91
2019-04-07T06:07:35.949Z,100884.91
2019-04-07T06:08:39.893Z,100884.59
2019-04-07T06:09:41.453Z,100888.62
2019-04-07T06:10:43.634Z,100883.42
2019-04-07T06:11:45.438Z,100880.60
2019-04-07T06:12:48.195Z,100884.31
2019-04-07T06:13:50.517Z,100880.49
2019-04-07T06:14:52.076Z,100880.52
2019-04-07T06:15:56.584Z,100887.73
2019-04-07T06:16:57.974Z,100885.08
2019-04-07T06:18:01.387Z,100886.45
2019-04-07T06:19:06.974Z,100886.55
2019-04-07T06:20:06.845Z,100885.57
2019-04-07T06:21:08.296Z,100883.73
2019-04-07T06:22:11.092Z,100884.62
2019-04-07T06:23:12.847Z,100889.01
2019-04-07T06:24:14.612Z,100885.34
2019-04-07T06:25:16.656Z,100887.05
2019-04-07T06:26:19.799Z,100884.39
2019-04-07T06:27:21.742Z,100882.06
2019-04-07T06:28:23.785Z,100880.59
2019-04-07T06:29:26.442Z,100881.47
2019-04-07T06:30:30.850Z,100882.83
2019-04-07T06:31:32.980Z,100883.19
2019-04-07T06:32:36.820Z,100883.69
2019-04-07T06:33:39.228Z,100885.42
2019-04-07T06:34:43.332Z,100891.63
2019-04-07T06:35:45.649Z,100886.27
2019-04-07T06:36:51.793Z,100891.17
2019-04-07T06:37:50.863Z,100896.08
2019-04-07T06:38:52.914Z,100888.06
2019-04-07T06:39:55.773Z,100894.45
2019-04-07T06:41:00.657Z,100893.12
2019-04-07T06:42:01.517Z,100889.09
2019-04-07T06:43:05.273Z,100890.80
2019-04-07T06:44:11.942Z,100894.50
2019-04-07T06:45:12.944Z,100891.48
2019-04-07T06:46:16.327Z,100891.00
2019-04-07T06:47:20.298Z,100888.47
2019-04-07T06:48:22.245Z,100895.20
2019-04-07T06:49:29.496Z,100896.21
2019-04-07T06:50:47.749Z,100894.53
2019-04-07T06:51:43.639Z,100901.30
2019-04-07T06:52:58.949Z,100902.13
2019-04-07T06:54:22.230Z,100892.56
2019-04-07T06:55:35.271Z,100899.62
2019-04-07T06:56:41.155Z,100906.02
2019-04-07T06:57:59.384Z,100911.07
2019-04-07T06:59:05.729Z,100905.20
2019-04-07T07:00:17.436Z,100905.02
2019-04-07T07:01:26.683Z,100905.69
2019-04-07T07:02:31.809Z,100903.33
2019-04-07T07:03:38.129Z,100904.34
2019-04-07T07:04:57.255Z,100903.70
2019-04-07T07:06:03.659Z,100901.02
2019-04-07T07:07:09.855Z,100911.78
2019-04-07T07:08:13.115Z,100906.73
2019-04-07T07:09:19.183Z,100905.05
2019-04-07T07:10:30.318Z,100911.11
2019-04-07T07:11:48.593Z,100909.76
2019-04-07T07:12:51.879Z,100909.13
2019-04-07T07:14:07.790Z,100907.59
2019-04-07T07:15:28.345Z,100914.32
2019-04-07T07:16:49.072Z,100910.62
2019-04-07T07:17:54.900Z,100916.19
2019-04-07T07:19:02.022Z,100923.25
2019-04-07T07:20:07.087Z,100920.71
2019-04-07T07:21:16.660Z,100924.75
2019-04-07T07:22:22.677Z,100926.95
2019-04-07T07:23:26.374Z,100923.25
2019-04-07T07:24:29.516Z,100928.63
2019-04-07T07:25:32.203Z,100931.66
2019-04-07T07:26:35.415Z,100938.39
2019-04-07T07:27:40.440Z,100935.70
2019-04-07T07:28:42.894Z,100937.38
2019-04-07T07:29:46.029Z,100940.41
2019-04-07T07:30:50.394Z,100943.10
2019-04-07T07:31:52.249Z,100944.45
2019-04-07T07:32:54.183Z,100949.64
2019-04-07T07:33:56.131Z,100953.69
2019-04-07T07:34:57.646Z,100947.48
2019-04-07T07:35:59.312Z,100952.19
2019-04-07T07:37:00.835Z,100957.57
2019-04-07T07:38:02.764Z,100953.88
2019-04-07T07:39:10.210Z,100957.91
2019-04-07T07:40:10.010Z,100960.08
2019-04-07T07:41:11.473Z,100956.90
2019-04-07T07:42:13.729Z,100954.55
2019-04-07T07:43:15.151Z,100952.67
2019-04-07T07:44:16.729Z,100953.20
2019-04-07T07:45:18.686Z,100961.09
2019-04-07T07:46:21.872Z,100958.40
2019-04-07T07:47:23.527Z,100959.25
2019-04-07T07:48:27.958Z,100957.57
2019-04-07T07:49:32.519Z,100961.42
2019-04-07T07:50:31.745Z,100973.20
2019-04-07T07:51:33.260Z,100966.47
2019-04-07T07:52:35.143Z,100970.84
2019-04-07T07:53:37.253Z,100968.34
2019-04-07T07:54:38.819Z,100975.07
2019-04-07T07:55:40.302Z,100976.08
2019-04-07T07:56:47.402Z,100977.91
2019-04-07T07:57:45.153Z,100981.95
2019-04-07T07:58:47.215Z,100979.78
2019-04-07T07:59:49.881Z,100975.41
2019-04-07T08:00:51.248Z,100985.84
2019-04-07T08:01:53.404Z,100983.63
2019-04-07T08:02:54.851Z,100983.30
2019-04-07T08:03:56.234Z,100991.89
2019-04-07T08:04:59.204Z,100984.64
2019-04-07T08:06:04.663Z,100992.23
2019-04-07T08:07:04.343Z,100990.88
2019-04-07T08:08:05.913Z,100989.69
2019-04-07T08:09:12.845Z,100994.73
2019-04-07T08:10:10.955Z,100994.39
2019-04-07T08:11:15.129Z,100993.72
2019-04-07T08:12:16.317Z,100988.52
2019-04-07T08:13:18.000Z,100993.53
2019-04-07T08:14:19.887Z,100991.84
2019-04-07T08:15:25.494Z,100996.06
2019-04-07T08:16:25.117Z,100999.77
2019-04-07T08:17:27.066Z,100998.42
2019-04-07T08:18:29.639Z,100998.91
2019-04-07T08:19:31.770Z,100997.23
2019-04-07T08:20:33.915Z,101002.27
2019-04-07T08:21:35.395Z,101004.95
2019-04-07T08:22:42.871Z,101002.79
2019-04-07T08:23:44.609Z,101003.77
2019-04-07T08:24:45.483Z,101000.58
2019-04-07T08:25:47.121Z,101000.58
2019-04-07T08:26:48.846Z,101000.58
2019-04-07T08:27:50.260Z,101006.30
2019-04-07T08:28:52.612Z,101010.00
2019-04-07T08:29:54.765Z,101013.03
2019-04-07T08:30:56.272Z,101002.27
2019-04-07T08:31:57.709Z,101004.47
2019-04-07T08:33:00.447Z,101003.95
2019-04-07T08:34:02.578Z,101001.27
2019-04-07T08:35:05.763Z,101005.63
2019-04-07T08:36:11.123Z,100999.77
2019-04-07T08:37:14.365Z,101004.14
2019-04-07T08:38:14.017Z,101000.59
2019-04-07T08:39:22.664Z,101005.48
2019-04-07T08:40:18.841Z,101003.62
2019-04-07T08:41:20.325Z,101004.97
2019-04-07T08:42:22.584Z,101004.62
2019-04-07T08:43:24.785Z,100998.42
2019-04-07T08:44:29.289Z,100997.90
2019-04-07T08:45:31.662Z,100999.42
2019-04-07T08:46:38.646Z,101001.11
2019-04-07T08:47:36.228Z,100999.25
2019-04-07T08:48:37.598Z,101001.94
2019-04-07T08:49:38.991Z,101003.80
2019-04-07T08:50:41.051Z,101003.95
2019-04-07T08:51:42.735Z,100999.91
2019-04-07T08:52:44.259Z,100995.88
2019-04-07T08:53:46.106Z,100996.73
2019-04-07T08:54:50.391Z,101003.13
2019-04-07T08:55:54.410Z,100999.09
2019-04-07T08:56:56.769Z,100998.23
2019-04-07T08:58:00.091Z,101001.27
2019-04-07T08:59:01.026Z,100995.35
2019-04-07T09:00:07.244Z,100998.38
2019-04-07T09:01:09.717Z,100998.53
2019-04-07T09:02:11.388Z,101000.88
2019-04-07T09:03:15.678Z,100998.38
2019-04-07T09:04:17.633Z,101006.59
2019-04-07T09:05:22.446Z,101010.63
2019-04-07T09:06:23.196Z,101012.16
2019-04-07T09:07:24.701Z,101006.92
2019-04-07T09:08:26.250Z,101016.00
2019-04-07T09:09:34.130Z,101008.45
2019-04-07T09:10:34.486Z,101009.61
2019-04-07T09:11:39.127Z,101019.36
2019-04-07T09:12:39.607Z,101012.45
2019-04-07T09:13:43.057Z,101005.23
2019-04-07T09:14:45.597Z,101012.97
2019-04-07T09:16:03.655Z,101013.97
2019-04-07T09:17:30.865Z,101010.42
2019-04-07T09:18:52.848Z,101008.07
2019-04-07T09:19:50.777Z,101010.27
2019-04-07T09:21:15.001Z,101017.19
2019-04-07T09:22:32.805Z,101013.63
2019-04-07T09:23:50.965Z,101014.80
2019-04-07T09:25:09.672Z,101013.11
2019-04-07T09:26:17.466Z,101013.30
2019-04-07T09:27:38.615Z,101005.22
2019-04-07T09:28:55.732Z,101007.72
2019-04-07T09:29:59.023Z,101009.59
2019-04-07T09:31:04.264Z,101016.31
2019-04-07T09:32:19.258Z,101011.59
2019-04-07T09:33:25.276Z,101009.58
2019-04-07T09:34:45.123Z,101011.26
2019-04-07T09:36:04.811Z,101008.72
2019-04-07T09:37:13.944Z,101018.33
2019-04-07T09:38:35.516Z,101010.94
2019-04-07T09:39:59.541Z,101011.94
2019-04-07T09:41:12.297Z,101018.00
2019-04-07T09:42:15.944Z,101012.62
2019-04-07T09:43:22.500Z,101009.59
2019-04-07T09:44:30.877Z,101011.94
2019-04-07T09:45:50.078Z,101012.61
2019-04-07T09:46:54.134Z,101011.26
2019-04-07T09:48:17.707Z,101009.25
2019-04-07T09:49:21.261Z,101007.05
2019-04-07T09:50:33.134Z,101009.59
2019-04-07T09:51:42.884Z,101008.39
2019-04-07T09:52:48.815Z,101007.56
2019-04-07T09:53:52.159Z,101005.70
2019-04-07T09:54:55.662Z,101007.22
2019-04-07T09:56:02.689Z,100999.82
2019-04-07T09:57:18.024Z,101000.31
2019-04-07T09:58:33.249Z,101001.51
2019-04-07T09:59:36.516Z,100993.44
2019-04-07T10:00:39.913Z,100996.80
2019-04-07T10:01:52.672Z,101002.33
2019-04-07T10:03:13.601Z,100993.09
2019-04-07T10:04:32.662Z,100995.78
2019-04-07T10:05:52.380Z,100998.30
2019-04-07T10:07:09.646Z,100998.81
2019-04-07T10:08:13.943Z,100996.95
2019-04-07T10:09:29.274Z,100998.48
2019-04-07T10:10:32.559Z,100999.97
2019-04-07T10:11:38.641Z,100996.94
2019-04-07T10:12:59.738Z,101004.84
2019-04-07T10:14:09.935Z,101002.16
2019-04-07T10:15:28.486Z,100997.61
2019-04-07T10:16:44.679Z,101001.82
2019-04-07T10:17:57.598Z,101004.84
2019-04-07T10:19:00.919Z,101008.88
2019-04-07T10:20:06.448Z,101012.58
2019-04-07T10:21:12.506Z,101015.27
2019-04-07T10:22:18.831Z,101017.95
2019-04-07T10:23:22.111Z,101018.62
2019-04-07T10:24:40.448Z,101018.97
2019-04-07T10:25:46.645Z,101014.07
2019-04-07T10:26:56.290Z,101012.92
2019-04-07T10:28:17.810Z,101015.61
2019-04-07T10:29:23.976Z,101017.78
2019-04-07T10:30:33.308Z,101020.48
2019-04-07T10:31:49.420Z,101023.17
2019-04-07T10:32:55.314Z,101023.69
2019-04-07T10:33:58.748Z,101020.00
2019-04-07T10:35:18.997Z,101023.52
2019-04-07T10:36:22.863Z,101026.72
2019-04-07T10:37:42.865Z,101022.51
2019-04-07T10:38:49.598Z,101020.00
2019-04-07T10:39:55.955Z,101019.33
2019-04-07T10:41:16.131Z,101021.16
2019-04-07T10:42:20.163Z,101024.38
2019-04-07T10:43:24.003Z,101022.84
2019-04-07T10:44:39.016Z,101029.57
2019-04-07T10:45:42.295Z,101023.03
2019-04-07T10:46:57.506Z,101015.78
2019-04-07T10:48:09.564Z,101016.45
2019-04-07T10:49:12.863Z,101019.33
2019-04-07T10:50:16.799Z,101015.30
2019-04-07T10:51:36.503Z,101011.92
2019-04-07T10:52:56.284Z,101012.27
2019-04-07T10:54:14.458Z,101014.29
2019-04-07T10:55:30.631Z,101014.62
2019-04-07T10:56:34.460Z,101010.59
2019-04-07T10:57:43.640Z,101014.97
2019-04-07T10:58:52.917Z,101012.61
2019-04-07T11:00:05.737Z,101009.06
2019-04-07T11:01:09.142Z,101008.57
2019-04-07T11:02:15.539Z,101012.09
2019-04-07T11:03:35.259Z,101010.40
2019-04-07T11:04:50.875Z,101007.22
2019-04-07T11:06:08.819Z,101015.97
2019-04-07T11:07:18.763Z,101012.28
2019-04-07T11:08:38.435Z,101012.62
2019-04-07T11:09:59.078Z,101010.94
2019-04-07T11:11:14.584Z,101014.78
2019-04-07T11:12:17.970Z,101012.28
2019-04-07T11:13:36.265Z,101012.44
2019-04-07T11:14:45.587Z,101010.41
2019-04-07T11:15:51.976Z,101004.55
2019-04-07T11:17:02.427Z,101008.58
2019-04-07T11:18:19.051Z,101011.27
2019-04-07T11:19:28.105Z,101009.59
2019-04-07T11:20:33.868Z,101014.30
2019-04-07T11:21:49.148Z,101011.94
2019-04-07T11:23:01.909Z,101016.31
2019-04-07T11:24:05.435Z,101014.45
2019-04-07T11:25:28.545Z,101011.61
2019-04-07T11:26:48.857Z,101011.27
2019-04-07T11:27:55.058Z,101010.75
2019-04-07T11:29:16.596Z,101014.64
2019-04-07T11:30:27.198Z,101013.44
2019-04-07T11:31:31.048Z,101010.60
2019-04-07T11:32:34.829Z,101013.30
2019-04-07T11:33:47.095Z,101014.30
2019-04-07T11:34:53.185Z,101011.27
2019-04-07T11:35:56.456Z,101010.75
2019-04-07T11:37:02.258Z,101009.92
2019-04-07T11:38:15.240Z,101012.62
2019-04-07T11:39:35.136Z,101011.27
2019-04-07T11:40:45.770Z,101013.63
2019-04-07T11:41:52.802Z,101016.66
2019-04-07T11:43:02.223Z,101013.28
2019-04-07T11:44:08.368Z,101015.97
2019-04-07T11:45:11.747Z,101015.63
2019-04-07T11:46:15.037Z,101017.13
2019-04-07T11:47:21.143Z,101018.31
2019-04-07T11:48:33.224Z,101019.80
2019-04-07T11:49:36.545Z,101022.67
2019-04-07T11:50:56.558Z,101015.09
2019-04-07T11:52:00.130Z,101018.97
2019-04-07T11:53:03.873Z,101019.98
2019-04-07T11:54:07.664Z,101026.03
2019-04-07T11:55:11.894Z,101021.66
2019-04-07T11:56:18.002Z,101022.14
2019-04-07T11:57:33.455Z,101022.29
2019-04-07T11:58:36.873Z,101021.46
2019-04-07T11:59:45.978Z,101021.31
2019-04-07T12:00:52.660Z,101024.00
2019-04-07T12:01:58.644Z,101022.29
2019-04-07T12:03:02.828Z,101022.66
2019-04-07T12:04:06.805Z,101019.59
2019-04-07T12:05:22.433Z,101023.30
2019-04-07T12:06:25.699Z,101019.26
2019-04-07T12:07:45.815Z,101026.32
2019-04-07T12:08:52.225Z,101022.29
2019-04-07T12:10:05.439Z,101029.38
2019-04-07T12:11:09.679Z,101022.29
2019-04-07T12:12:26.564Z,101024.98
2019-04-07T12:13:42.519Z,101024.98
2019-04-07T12:15:00.227Z,101024.16
2019-04-07T12:16:20.164Z,101024.83
2019-04-07T12:17:29.809Z,101024.34
2019-04-07T12:18:34.090Z,101018.78
2019-04-07T12:19:37.447Z,101024.34
2019-04-07T12:20:43.998Z,101026.17
2019-04-07T12:21:48.057Z,101022.47
2019-04-07T12:23:06.339Z,101026.32
2019-04-07T12:24:10.595Z,101027.33
2019-04-07T12:25:32.807Z,101021.31
2019-04-07T12:26:47.294Z,101021.31
2019-04-07T12:28:02.215Z,101024.83
2019-04-07T12:29:05.880Z,101019.79
2019-04-07T12:30:11.964Z,101025.17
2019-04-07T12:31:18.571Z,101024.98
2019-04-07T12:32:34.342Z,101029.02
2019-04-07T12:33:52.823Z,101022.95
2019-04-07T12:35:01.928Z,101026.70
2019-04-07T12:36:06.211Z,101026.70
2019-04-07T12:37:10.323Z,101029.38
2019-04-07T12:38:30.677Z,101030.36